sensor_id;sensor_type;location;lat;lon;timestamp;P1;durP1;ratioP1;P2;durP2;ratioP2
11675;SDS011;5894;42.768;23.404;2023-08-07T00:01:02;2.15;;;1.95;;
11675;SDS011;5894;42.768;23.404;2023-08-07T00:03:29;1.77;;;1.58;;
11675;SDS011;5894;42.768;23.404;2023-08-07T00:05:57;1.77;;;1.40;;
11675;SDS011;5894;42.768;23.404;2023-08-07T00:08:24;1.50;;;1.40;;
11675;SDS011;5894;42.768;23.404;2023-08-07T00:10:51;1.98;;;1.55;;
11675;SDS011;5894;42.768;23.404;2023-08-07T00:13:18;1.67;;;1.40;;
11675;SDS011;5894;42.768;23.404;2023-08-07T00:15:46;1.35;;;1.25;;
11675;SDS011;5894;42.768;23.404;2023-08-07T00:18:13;1.90;;;1.42;;
11675;SDS011;5894;42.768;23.404;2023-08-07T00:20:40;1.40;;;1.30;;
11675;SDS011;5894;42.768;23.404;2023-08-07T00:23:08;1.50;;;1.40;;
11675;SDS011;5894;42.768;23.404;2023-08-07T00:25:35;1.58;;;1.40;;
11675;SDS011;5894;42.768;23.404;2023-08-07T00:28:02;1.40;;;1.27;;
11675;SDS011;5894;42.768;23.404;2023-08-07T00:30:29;1.45;;;1.35;;
11675;SDS011;5894;42.768;23.404;2023-08-07T00:32:57;1.40;;;1.30;;
11675;SDS011;5894;42.768;23.404;2023-08-07T00:35:25;1.58;;;1.48;;
11675;SDS011;5894;42.768;23.404;2023-08-07T00:37:52;1.70;;;1.60;;
11675;SDS011;5894;42.768;23.404;2023-08-07T00:40:20;1.60;;;1.27;;
11675;SDS011;5894;42.768;23.404;2023-08-07T00:42:47;1.63;;;1.52;;
11675;SDS011;5894;42.768;23.404;2023-08-07T00:45:14;2.38;;;1.40;;
11675;SDS011;5894;42.768;23.404;2023-08-07T00:47:43;2.00;;;1.65;;
11675;SDS011;5894;42.768;23.404;2023-08-07T00:50:11;1.73;;;1.63;;
11675;SDS011;5894;42.768;23.404;2023-08-07T00:52:39;1.80;;;1.70;;
11675;SDS011;5894;42.768;23.404;2023-08-07T00:55:06;2.15;;;1.98;;
11675;SDS011;5894;42.768;23.404;2023-08-07T00:57:34;2.47;;;1.92;;
11675;SDS011;5894;42.768;23.404;2023-08-07T01:00:01;2.25;;;1.85;;
11675;SDS011;5894;42.768;23.404;2023-08-07T01:02:29;2.30;;;2.10;;
11675;SDS011;5894;42.768;23.404;2023-08-07T01:04:56;2.30;;;1.90;;
11675;SDS011;5894;42.768;23.404;2023-08-07T01:07:24;2.08;;;1.98;;
11675;SDS011;5894;42.768;23.404;2023-08-07T01:09:51;3.22;;;2.25;;
11675;SDS011;5894;42.768;23.404;2023-08-07T01:12:19;2.10;;;2.00;;
11675;SDS011;5894;42.768;23.404;2023-08-07T01:14:49;2.00;;;1.80;;
11675;SDS011;5894;42.768;23.404;2023-08-07T01:17:22;2.80;;;2.20;;
11675;SDS011;5894;42.768;23.404;2023-08-07T01:19:49;2.60;;;2.10;;
11675;SDS011;5894;42.768;23.404;2023-08-07T01:22:19;2.00;;;1.90;;
11675;SDS011;5894;42.768;23.404;2023-08-07T01:24:46;2.35;;;2.15;;
11675;SDS011;5894;42.768;23.404;2023-08-07T01:27:22;2.42;;;2.00;;
11675;SDS011;5894;42.768;23.404;2023-08-07T01:29:57;3.53;;;2.15;;
11675;SDS011;5894;42.768;23.404;2023-08-07T01:32:34;2.28;;;1.90;;
11675;SDS011;5894;42.768;23.404;2023-08-07T01:35:08;2.10;;;1.90;;
11675;SDS011;5894;42.768;23.404;2023-08-07T01:37:41;2.20;;;1.90;;
11675;SDS011;5894;42.768;23.404;2023-08-07T01:40:09;2.22;;;1.70;;
11675;SDS011;5894;42.768;23.404;2023-08-07T01:42:38;1.90;;;1.80;;
11675;SDS011;5894;42.768;23.404;2023-08-07T01:45:07;2.92;;;1.83;;
11675;SDS011;5894;42.768;23.404;2023-08-07T01:47:34;2.00;;;1.80;;
11675;SDS011;5894;42.768;23.404;2023-08-07T01:50:02;1.90;;;1.70;;
11675;SDS011;5894;42.768;23.404;2023-08-07T01:52:29;2.45;;;1.80;;
11675;SDS011;5894;42.768;23.404;2023-08-07T01:54:58;4.05;;;2.13;;
11675;SDS011;5894;42.768;23.404;2023-08-07T01:57:25;2.50;;;2.30;;
11675;SDS011;5894;42.768;23.404;2023-08-07T01:59:52;3.80;;;2.15;;
11675;SDS011;5894;42.768;23.404;2023-08-07T02:02:19;4.82;;;2.40;;
11675;SDS011;5894;42.768;23.404;2023-08-07T02:04:46;2.47;;;2.13;;
11675;SDS011;5894;42.768;23.404;2023-08-07T02:07:13;3.35;;;2.30;;
11675;SDS011;5894;42.768;23.404;2023-08-07T02:09:40;2.78;;;2.40;;
11675;SDS011;5894;42.768;23.404;2023-08-07T02:12:09;3.72;;;2.28;;
11675;SDS011;5894;42.768;23.404;2023-08-07T02:14:36;2.55;;;2.35;;
11675;SDS011;5894;42.768;23.404;2023-08-07T02:17:03;2.92;;;2.72;;
11675;SDS011;5894;42.768;23.404;2023-08-07T02:19:31;4.70;;;2.47;;
11675;SDS011;5894;42.768;23.404;2023-08-07T02:21:58;3.13;;;2.63;;
11675;SDS011;5894;42.768;23.404;2023-08-07T02:24:25;2.70;;;2.50;;
11675;SDS011;5894;42.768;23.404;2023-08-07T02:26:52;3.88;;;3.20;;
11675;SDS011;5894;42.768;23.404;2023-08-07T02:29:21;3.13;;;2.45;;
11675;SDS011;5894;42.768;23.404;2023-08-07T02:31:49;2.90;;;2.70;;
11675;SDS011;5894;42.768;23.404;2023-08-07T02:34:16;3.60;;;2.55;;
11675;SDS011;5894;42.768;23.404;2023-08-07T02:36:43;3.28;;;2.67;;
11675;SDS011;5894;42.768;23.404;2023-08-07T02:39:10;2.70;;;2.50;;
11675;SDS011;5894;42.768;23.404;2023-08-07T02:41:37;3.05;;;2.70;;
11675;SDS011;5894;42.768;23.404;2023-08-07T02:44:04;2.92;;;2.67;;
11675;SDS011;5894;42.768;23.404;2023-08-07T02:46:33;2.72;;;2.53;;
11675;SDS011;5894;42.768;23.404;2023-08-07T02:49:01;4.00;;;3.22;;
11675;SDS011;5894;42.768;23.404;2023-08-07T02:51:28;5.05;;;3.00;;
11675;SDS011;5894;42.768;23.404;2023-08-07T02:53:55;4.20;;;3.00;;
11675;SDS011;5894;42.768;23.404;2023-08-07T02:56:22;3.38;;;3.08;;
11675;SDS011;5894;42.768;23.404;2023-08-07T02:58:49;3.33;;;2.95;;
11675;SDS011;5894;42.768;23.404;2023-08-07T03:01:16;3.85;;;3.10;;
11675;SDS011;5894;42.768;23.404;2023-08-07T03:03:45;4.40;;;3.40;;
11675;SDS011;5894;42.768;23.404;2023-08-07T03:06:12;3.72;;;3.20;;
11675;SDS011;5894;42.768;23.404;2023-08-07T03:08:39;3.50;;;3.20;;
11675;SDS011;5894;42.768;23.404;2023-08-07T03:11:08;5.10;;;3.40;;
11675;SDS011;5894;42.768;23.404;2023-08-07T03:13:35;3.97;;;3.30;;
11675;SDS011;5894;42.768;23.404;2023-08-07T03:16:02;4.85;;;3.15;;
11675;SDS011;5894;42.768;23.404;2023-08-07T03:18:31;3.25;;;3.05;;
11675;SDS011;5894;42.768;23.404;2023-08-07T03:21:02;4.35;;;3.22;;
11675;SDS011;5894;42.768;23.404;2023-08-07T03:23:29;3.50;;;3.20;;
11675;SDS011;5894;42.768;23.404;2023-08-07T03:26:02;3.47;;;3.20;;
11675;SDS011;5894;42.768;23.404;2023-08-07T03:28:30;3.53;;;3.15;;
11675;SDS011;5894;42.768;23.404;2023-08-07T03:30:57;3.72;;;3.00;;
11675;SDS011;5894;42.768;23.404;2023-08-07T03:33:25;4.13;;;3.00;;
11675;SDS011;5894;42.768;23.404;2023-08-07T03:35:53;5.10;;;3.00;;
11675;SDS011;5894;42.768;23.404;2023-08-07T03:38:22;3.55;;;3.10;;
11675;SDS011;5894;42.768;23.404;2023-08-07T03:40:52;4.35;;;3.40;;
11675;SDS011;5894;42.768;23.404;2023-08-07T03:43:19;3.95;;;3.55;;
11675;SDS011;5894;42.768;23.404;2023-08-07T03:45:47;3.20;;;2.90;;
11675;SDS011;5894;42.768;23.404;2023-08-07T03:48:14;3.05;;;2.85;;
11675;SDS011;5894;42.768;23.404;2023-08-07T03:50:41;4.45;;;3.35;;
11675;SDS011;5894;42.768;23.404;2023-08-07T03:53:09;3.30;;;3.10;;
11675;SDS011;5894;42.768;23.404;2023-08-07T03:55:43;4.10;;;3.13;;
11675;SDS011;5894;42.768;23.404;2023-08-07T03:58:16;4.78;;;3.33;;
11675;SDS011;5894;42.768;23.404;2023-08-07T04:00:43;3.63;;;3.33;;
11675;SDS011;5894;42.768;23.404;2023-08-07T04:03:10;3.58;;;3.25;;
11675;SDS011;5894;42.768;23.404;2023-08-07T04:05:37;3.75;;;3.10;;
11675;SDS011;5894;42.768;23.404;2023-08-07T04:08:06;2.88;;;2.67;;
11675;SDS011;5894;42.768;23.404;2023-08-07T04:10:33;3.45;;;3.15;;
11675;SDS011;5894;42.768;23.404;2023-08-07T04:13:02;5.32;;;3.05;;
11675;SDS011;5894;42.768;23.404;2023-08-07T04:15:29;3.40;;;3.10;;
11675;SDS011;5894;42.768;23.404;2023-08-07T04:17:56;3.28;;;2.97;;
11675;SDS011;5894;42.768;23.404;2023-08-07T04:20:23;3.80;;;2.97;;
11675;SDS011;5894;42.768;23.404;2023-08-07T04:22:51;3.40;;;3.03;;
11675;SDS011;5894;42.768;23.404;2023-08-07T04:25:18;4.03;;;3.20;;
11675;SDS011;5894;42.768;23.404;2023-08-07T04:27:45;3.47;;;2.97;;
11675;SDS011;5894;42.768;23.404;2023-08-07T04:30:14;3.65;;;3.22;;
11675;SDS011;5894;42.768;23.404;2023-08-07T04:32:41;3.00;;;2.80;;
11675;SDS011;5894;42.768;23.404;2023-08-07T04:35:08;3.03;;;2.83;;
11675;SDS011;5894;42.768;23.404;2023-08-07T04:37:35;4.93;;;3.33;;
11675;SDS011;5894;42.768;23.404;2023-08-07T04:40:03;4.28;;;3.30;;
11675;SDS011;5894;42.768;23.404;2023-08-07T04:42:31;4.40;;;3.17;;
11675;SDS011;5894;42.768;23.404;2023-08-07T04:44:58;4.10;;;2.97;;
11675;SDS011;5894;42.768;23.404;2023-08-07T04:47:28;3.85;;;2.95;;
11675;SDS011;5894;42.768;23.404;2023-08-07T04:49:55;3.80;;;3.50;;
11675;SDS011;5894;42.768;23.404;2023-08-07T04:52:23;4.10;;;3.70;;
11675;SDS011;5894;42.768;23.404;2023-08-07T04:54:49;4.15;;;3.80;;
11675;SDS011;5894;42.768;23.404;2023-08-07T04:57:17;3.88;;;3.00;;
11675;SDS011;5894;42.768;23.404;2023-08-07T04:59:44;4.03;;;2.78;;
11675;SDS011;5894;42.768;23.404;2023-08-07T05:02:11;2.97;;;2.67;;
11675;SDS011;5894;42.768;23.404;2023-08-07T05:04:40;3.10;;;2.80;;
11675;SDS011;5894;42.768;23.404;2023-08-07T05:07:07;3.63;;;2.58;;
11675;SDS011;5894;42.768;23.404;2023-08-07T05:09:35;6.07;;;2.70;;
11675;SDS011;5894;42.768;23.404;2023-08-07T05:12:02;3.17;;;2.90;;
11675;SDS011;5894;42.768;23.404;2023-08-07T05:14:30;3.00;;;2.70;;
11675;SDS011;5894;42.768;23.404;2023-08-07T05:16:57;2.92;;;2.60;;
11675;SDS011;5894;42.768;23.404;2023-08-07T05:19:25;2.88;;;2.55;;
11675;SDS011;5894;42.768;23.404;2023-08-07T05:21:53;2.97;;;2.67;;
11675;SDS011;5894;42.768;23.404;2023-08-07T05:24:20;2.80;;;2.60;;
11675;SDS011;5894;42.768;23.404;2023-08-07T05:26:48;4.68;;;2.10;;
11675;SDS011;5894;42.768;23.404;2023-08-07T05:29:15;6.10;;;2.55;;
11675;SDS011;5894;42.768;23.404;2023-08-07T05:31:42;2.88;;;2.67;;
11675;SDS011;5894;42.768;23.404;2023-08-07T05:34:09;3.08;;;2.53;;
11675;SDS011;5894;42.768;23.404;2023-08-07T05:36:36;3.67;;;2.67;;
11675;SDS011;5894;42.768;23.404;2023-08-07T05:39:06;4.65;;;2.92;;
11675;SDS011;5894;42.768;23.404;2023-08-07T05:41:34;3.83;;;2.65;;
11675;SDS011;5894;42.768;23.404;2023-08-07T05:44:01;6.50;;;2.58;;
11675;SDS011;5894;42.768;23.404;2023-08-07T05:46:28;3.20;;;2.50;;
11675;SDS011;5894;42.768;23.404;2023-08-07T05:48:55;7.85;;;3.10;;
11675;SDS011;5894;42.768;23.404;2023-08-07T05:51:22;2.40;;;2.20;;
11675;SDS011;5894;42.768;23.404;2023-08-07T05:53:49;4.40;;;2.55;;
11675;SDS011;5894;42.768;23.404;2023-08-07T05:56:17;2.35;;;2.15;;
11675;SDS011;5894;42.768;23.404;2023-08-07T05:58:45;2.55;;;2.35;;
11675;SDS011;5894;42.768;23.404;2023-08-07T06:01:13;2.58;;;2.20;;
11675;SDS011;5894;42.768;23.404;2023-08-07T06:03:42;3.67;;;2.40;;
11675;SDS011;5894;42.768;23.404;2023-08-07T06:06:09;2.92;;;1.90;;
11675;SDS011;5894;42.768;23.404;2023-08-07T06:08:36;1.95;;;1.83;;
11675;SDS011;5894;42.768;23.404;2023-08-07T06:11:03;2.05;;;1.95;;
11675;SDS011;5894;42.768;23.404;2023-08-07T06:13:34;6.10;;;2.80;;
11675;SDS011;5894;42.768;23.404;2023-08-07T06:16:02;3.40;;;2.30;;
11675;SDS011;5894;42.768;23.404;2023-08-07T06:18:29;2.10;;;2.00;;
11675;SDS011;5894;42.768;23.404;2023-08-07T06:20:56;2.30;;;1.90;;
11675;SDS011;5894;42.768;23.404;2023-08-07T06:23:23;2.30;;;2.10;;
11675;SDS011;5894;42.768;23.404;2023-08-07T06:25:50;2.33;;;1.95;;
11675;SDS011;5894;42.768;23.404;2023-08-07T06:28:18;2.15;;;1.60;;
11675;SDS011;5894;42.768;23.404;2023-08-07T06:30:46;2.08;;;1.98;;
11675;SDS011;5894;42.768;23.404;2023-08-07T06:33:13;6.32;;;2.20;;
11675;SDS011;5894;42.768;23.404;2023-08-07T06:35:40;2.30;;;1.88;;
11675;SDS011;5894;42.768;23.404;2023-08-07T06:38:08;2.08;;;1.60;;
11675;SDS011;5894;42.768;23.404;2023-08-07T06:40:35;1.85;;;1.75;;
11675;SDS011;5894;42.768;23.404;2023-08-07T06:43:02;1.77;;;1.67;;
11675;SDS011;5894;42.768;23.404;2023-08-07T06:45:29;2.00;;;1.50;;
11675;SDS011;5894;42.768;23.404;2023-08-07T06:47:57;1.90;;;1.80;;
11675;SDS011;5894;42.768;23.404;2023-08-07T06:50:24;2.15;;;2.00;;
11675;SDS011;5894;42.768;23.404;2023-08-07T06:52:52;2.00;;;1.80;;
11675;SDS011;5894;42.768;23.404;2023-08-07T06:55:19;2.20;;;1.80;;
11675;SDS011;5894;42.768;23.404;2023-08-07T06:57:47;2.03;;;1.83;;
11675;SDS011;5894;42.768;23.404;2023-08-07T07:00:14;2.25;;;1.75;;
11675;SDS011;5894;42.768;23.404;2023-08-07T07:02:42;1.80;;;1.70;;
11675;SDS011;5894;42.768;23.404;2023-08-07T07:05:10;5.55;;;2.30;;
11675;SDS011;5894;42.768;23.404;2023-08-07T07:07:38;3.33;;;2.17;;
11675;SDS011;5894;42.768;23.404;2023-08-07T07:10:05;4.43;;;1.83;;
11675;SDS011;5894;42.768;23.404;2023-08-07T07:12:33;2.10;;;1.90;;
11675;SDS011;5894;42.768;23.404;2023-08-07T07:15:00;2.13;;;1.90;;
11675;SDS011;5894;42.768;23.404;2023-08-07T07:17:28;1.80;;;1.70;;
11675;SDS011;5894;42.768;23.404;2023-08-07T07:19:55;1.85;;;1.70;;
11675;SDS011;5894;42.768;23.404;2023-08-07T07:22:24;3.55;;;1.77;;
11675;SDS011;5894;42.768;23.404;2023-08-07T07:24:51;2.42;;;1.95;;
11675;SDS011;5894;42.768;23.404;2023-08-07T07:27:18;2.15;;;1.95;;
11675;SDS011;5894;42.768;23.404;2023-08-07T07:29:47;2.40;;;1.60;;
11675;SDS011;5894;42.768;23.404;2023-08-07T07:32:14;2.20;;;2.00;;
11675;SDS011;5894;42.768;23.404;2023-08-07T07:34:42;1.80;;;1.70;;
11675;SDS011;5894;42.768;23.404;2023-08-07T07:37:09;2.38;;;1.80;;
11675;SDS011;5894;42.768;23.404;2023-08-07T07:39:40;1.80;;;1.70;;
11675;SDS011;5894;42.768;23.404;2023-08-07T07:42:07;2.45;;;1.52;;
11675;SDS011;5894;42.768;23.404;2023-08-07T07:44:34;3.17;;;1.70;;
11675;SDS011;5894;42.768;23.404;2023-08-07T07:47:02;2.13;;;1.70;;
11675;SDS011;5894;42.768;23.404;2023-08-07T07:49:30;2.75;;;1.50;;
11675;SDS011;5894;42.768;23.404;2023-08-07T07:51:59;1.90;;;1.77;;
11675;SDS011;5894;42.768;23.404;2023-08-07T07:54:27;3.10;;;1.75;;
11675;SDS011;5894;42.768;23.404;2023-08-07T07:56:56;2.58;;;1.45;;
11675;SDS011;5894;42.768;23.404;2023-08-07T07:59:23;1.60;;;1.50;;
11675;SDS011;5894;42.768;23.404;2023-08-07T08:01:50;1.75;;;1.60;;
11675;SDS011;5894;42.768;23.404;2023-08-07T08:04:17;2.35;;;1.67;;
11675;SDS011;5894;42.768;23.404;2023-08-07T08:06:45;1.60;;;1.50;;
11675;SDS011;5894;42.768;23.404;2023-08-07T08:09:13;3.10;;;1.67;;
11675;SDS011;5894;42.768;23.404;2023-08-07T08:11:41;1.77;;;1.45;;
11675;SDS011;5894;42.768;23.404;2023-08-07T08:14:10;3.75;;;1.85;;
11675;SDS011;5894;42.768;23.404;2023-08-07T08:16:37;2.95;;;1.55;;
11675;SDS011;5894;42.768;23.404;2023-08-07T08:19:04;1.95;;;1.40;;
11675;SDS011;5894;42.768;23.404;2023-08-07T08:21:32;1.40;;;1.30;;
11675;SDS011;5894;42.768;23.404;2023-08-07T08:24:00;5.45;;;1.52;;
11675;SDS011;5894;42.768;23.404;2023-08-07T08:26:27;1.30;;;1.20;;
11675;SDS011;5894;42.768;23.404;2023-08-07T08:28:54;1.40;;;1.30;;
11675;SDS011;5894;42.768;23.404;2023-08-07T08:31:22;2.10;;;1.48;;
11675;SDS011;5894;42.768;23.404;2023-08-07T08:33:49;1.75;;;1.63;;
11675;SDS011;5894;42.768;23.404;2023-08-07T08:36:16;1.40;;;1.30;;
11675;SDS011;5894;42.768;23.404;2023-08-07T08:38:43;2.35;;;1.80;;
11675;SDS011;5894;42.768;23.404;2023-08-07T08:41:13;3.22;;;1.40;;
11675;SDS011;5894;42.768;23.404;2023-08-07T08:43:41;2.70;;;1.38;;
11675;SDS011;5894;42.768;23.404;2023-08-07T08:46:12;2.00;;;1.48;;
11675;SDS011;5894;42.768;23.404;2023-08-07T08:48:43;2.55;;;1.38;;
11675;SDS011;5894;42.768;23.404;2023-08-07T08:51:13;1.45;;;1.35;;
11675;SDS011;5894;42.768;23.404;2023-08-07T08:53:42;1.38;;;1.25;;
11675;SDS011;5894;42.768;23.404;2023-08-07T08:56:10;1.30;;;1.20;;
11675;SDS011;5894;42.768;23.404;2023-08-07T08:58:37;1.45;;;1.27;;
11675;SDS011;5894;42.768;23.404;2023-08-07T09:01:04;1.20;;;1.08;;
11675;SDS011;5894;42.768;23.404;2023-08-07T09:03:33;1.52;;;1.30;;
11675;SDS011;5894;42.768;23.404;2023-08-07T09:06:03;1.45;;;1.30;;
11675;SDS011;5894;42.768;23.404;2023-08-07T09:08:32;1.88;;;1.20;;
11675;SDS011;5894;42.768;23.404;2023-08-07T09:11:00;1.25;;;1.15;;
11675;SDS011;5894;42.768;23.404;2023-08-07T09:13:27;1.20;;;1.20;;
11675;SDS011;5894;42.768;23.404;2023-08-07T09:15:55;2.10;;;1.30;;
11675;SDS011;5894;42.768;23.404;2023-08-07T09:18:25;4.82;;;1.58;;
11675;SDS011;5894;42.768;23.404;2023-08-07T09:20:52;1.20;;;1.10;;
11675;SDS011;5894;42.768;23.404;2023-08-07T09:23:21;1.10;;;1.00;;
11675;SDS011;5894;42.768;23.404;2023-08-07T09:25:56;1.30;;;1.20;;
11675;SDS011;5894;42.768;23.404;2023-08-07T09:28:26;1.48;;;1.38;;
11675;SDS011;5894;42.768;23.404;2023-08-07T09:30:54;2.03;;;1.40;;
11675;SDS011;5894;42.768;23.404;2023-08-07T09:33:24;1.40;;;1.30;;
11675;SDS011;5894;42.768;23.404;2023-08-07T09:35:52;1.40;;;1.10;;
11675;SDS011;5894;42.768;23.404;2023-08-07T09:38:23;2.58;;;1.10;;
11675;SDS011;5894;42.768;23.404;2023-08-07T09:40:50;1.88;;;1.23;;
11675;SDS011;5894;42.768;23.404;2023-08-07T09:43:21;2.05;;;1.17;;
11675;SDS011;5894;42.768;23.404;2023-08-07T09:45:48;2.30;;;1.30;;
11675;SDS011;5894;42.768;23.404;2023-08-07T09:48:20;1.30;;;1.20;;
11675;SDS011;5894;42.768;23.404;2023-08-07T09:50:49;1.25;;;1.15;;
11675;SDS011;5894;42.768;23.404;2023-08-07T09:53:16;2.50;;;1.35;;
11675;SDS011;5894;42.768;23.404;2023-08-07T09:55:45;1.20;;;1.10;;
11675;SDS011;5894;42.768;23.404;2023-08-07T09:58:12;1.42;;;1.20;;
11675;SDS011;5894;42.768;23.404;2023-08-07T10:00:39;1.60;;;1.20;;
11675;SDS011;5894;42.768;23.404;2023-08-07T10:03:07;1.30;;;1.20;;
11675;SDS011;5894;42.768;23.404;2023-08-07T10:05:35;1.40;;;1.30;;
11675;SDS011;5894;42.768;23.404;2023-08-07T10:08:02;1.38;;;1.27;;
11675;SDS011;5894;42.768;23.404;2023-08-07T10:10:31;1.30;;;1.20;;
11675;SDS011;5894;42.768;23.404;2023-08-07T10:13:01;2.15;;;1.10;;
11675;SDS011;5894;42.768;23.404;2023-08-07T10:15:28;3.78;;;1.35;;
11675;SDS011;5894;42.768;23.404;2023-08-07T10:17:56;4.00;;;1.42;;
11675;SDS011;5894;42.768;23.404;2023-08-07T10:20:23;1.98;;;1.10;;
11675;SDS011;5894;42.768;23.404;2023-08-07T10:22:53;1.38;;;1.20;;
11675;SDS011;5894;42.768;23.404;2023-08-07T10:25:21;1.48;;;1.38;;
11675;SDS011;5894;42.768;23.404;2023-08-07T10:27:51;1.40;;;1.10;;
11675;SDS011;5894;42.768;23.404;2023-08-07T10:30:23;2.58;;;1.20;;
11675;SDS011;5894;42.768;23.404;2023-08-07T10:32:51;1.30;;;1.20;;
11675;SDS011;5894;42.768;23.404;2023-08-07T10:35:25;1.40;;;1.30;;
11675;SDS011;5894;42.768;23.404;2023-08-07T10:37:59;1.48;;;1.38;;
11675;SDS011;5894;42.768;23.404;2023-08-07T10:40:32;2.75;;;1.13;;
11675;SDS011;5894;42.768;23.404;2023-08-07T10:42:59;4.38;;;1.40;;
11675;SDS011;5894;42.768;23.404;2023-08-07T10:45:39;2.90;;;1.13;;
11675;SDS011;5894;42.768;23.404;2023-08-07T10:48:06;1.75;;;1.30;;
11675;SDS011;5894;42.768;23.404;2023-08-07T10:50:46;2.35;;;1.00;;
11675;SDS011;5894;42.768;23.404;2023-08-07T10:53:19;2.50;;;1.20;;
11675;SDS011;5894;42.768;23.404;2023-08-07T10:55:47;4.43;;;1.27;;
11675;SDS011;5894;42.768;23.404;2023-08-07T10:58:21;1.63;;;1.20;;
11675;SDS011;5894;42.768;23.404;2023-08-07T11:00:51;1.30;;;1.10;;
11675;SDS011;5894;42.768;23.404;2023-08-07T11:03:26;1.42;;;1.33;;
11675;SDS011;5894;42.768;23.404;2023-08-07T11:05:53;1.30;;;1.20;;
11675;SDS011;5894;42.768;23.404;2023-08-07T11:08:26;1.48;;;1.30;;
11675;SDS011;5894;42.768;23.404;2023-08-07T11:10:54;1.98;;;1.27;;
11675;SDS011;5894;42.768;23.404;2023-08-07T11:13:21;6.03;;;1.10;;
11675;SDS011;5894;42.768;23.404;2023-08-07T11:15:49;5.45;;;1.35;;
11675;SDS011;5894;42.768;23.404;2023-08-07T11:18:17;1.05;;;1.02;;
11675;SDS011;5894;42.768;23.404;2023-08-07T11:20:45;1.60;;;1.17;;
11675;SDS011;5894;42.768;23.404;2023-08-07T11:23:13;1.17;;;1.17;;
11675;SDS011;5894;42.768;23.404;2023-08-07T11:25:41;1.17;;;1.13;;
11675;SDS011;5894;42.768;23.404;2023-08-07T11:28:09;1.10;;;1.10;;
11675;SDS011;5894;42.768;23.404;2023-08-07T11:30:36;1.13;;;1.08;;
11675;SDS011;5894;42.768;23.404;2023-08-07T11:33:04;4.10;;;1.33;;
11675;SDS011;5894;42.768;23.404;2023-08-07T11:35:33;1.33;;;1.23;;
11675;SDS011;5894;42.768;23.404;2023-08-07T11:38:01;1.50;;;1.40;;
11675;SDS011;5894;42.768;23.404;2023-08-07T11:40:28;2.28;;;1.20;;
11675;SDS011;5894;42.768;23.404;2023-08-07T11:42:55;1.30;;;1.20;;
11675;SDS011;5894;42.768;23.404;2023-08-07T11:45:23;1.30;;;1.20;;
11675;SDS011;5894;42.768;23.404;2023-08-07T11:47:50;1.77;;;1.25;;
11675;SDS011;5894;42.768;23.404;2023-08-07T11:50:21;5.80;;;1.67;;
11675;SDS011;5894;42.768;23.404;2023-08-07T11:52:50;2.70;;;1.30;;
11675;SDS011;5894;42.768;23.404;2023-08-07T11:55:17;2.08;;;1.20;;
11675;SDS011;5894;42.768;23.404;2023-08-07T11:57:45;4.18;;;1.30;;
11675;SDS011;5894;42.768;23.404;2023-08-07T12:00:13;1.30;;;1.20;;
11675;SDS011;5894;42.768;23.404;2023-08-07T12:02:41;2.55;;;1.15;;
11675;SDS011;5894;42.768;23.404;2023-08-07T12:05:10;1.50;;;1.15;;
11675;SDS011;5894;42.768;23.404;2023-08-07T12:07:38;1.58;;;1.30;;
11675;SDS011;5894;42.768;23.404;2023-08-07T12:10:08;1.38;;;1.27;;
11675;SDS011;5894;42.768;23.404;2023-08-07T12:12:36;1.98;;;1.48;;
11675;SDS011;5894;42.768;23.404;2023-08-07T12:15:06;7.18;;;1.67;;
11675;SDS011;5894;42.768;23.404;2023-08-07T12:17:35;1.40;;;1.30;;
11675;SDS011;5894;42.768;23.404;2023-08-07T12:20:03;2.92;;;1.30;;
11675;SDS011;5894;42.768;23.404;2023-08-07T12:22:32;1.50;;;1.25;;
11675;SDS011;5894;42.768;23.404;2023-08-07T12:25:00;2.25;;;1.48;;
11675;SDS011;5894;42.768;23.404;2023-08-07T12:27:28;1.40;;;1.30;;
11675;SDS011;5894;42.768;23.404;2023-08-07T12:29:55;1.83;;;1.48;;
11675;SDS011;5894;42.768;23.404;2023-08-07T12:32:23;1.67;;;1.52;;
11675;SDS011;5894;42.768;23.404;2023-08-07T12:34:50;1.48;;;1.38;;
11675;SDS011;5894;42.768;23.404;2023-08-07T12:37:19;1.98;;;1.60;;
11675;SDS011;5894;42.768;23.404;2023-08-07T12:39:46;1.58;;;1.48;;
11675;SDS011;5894;42.768;23.404;2023-08-07T12:42:13;1.30;;;1.20;;
11675;SDS011;5894;42.768;23.404;2023-08-07T12:44:41;1.77;;;1.50;;
11675;SDS011;5894;42.768;23.404;2023-08-07T12:47:09;2.38;;;1.35;;
11675;SDS011;5894;42.768;23.404;2023-08-07T12:49:36;3.55;;;1.48;;
11675;SDS011;5894;42.768;23.404;2023-08-07T12:52:03;1.50;;;1.40;;
11675;SDS011;5894;42.768;23.404;2023-08-07T12:54:31;1.98;;;1.38;;
11675;SDS011;5894;42.768;23.404;2023-08-07T12:56:58;2.30;;;1.50;;
11675;SDS011;5894;42.768;23.404;2023-08-07T12:59:25;3.28;;;1.30;;
11675;SDS011;5894;42.768;23.404;2023-08-07T13:01:54;2.78;;;1.48;;
11675;SDS011;5894;42.768;23.404;2023-08-07T13:04:21;1.65;;;1.33;;
11675;SDS011;5894;42.768;23.404;2023-08-07T13:06:49;2.08;;;1.63;;
11675;SDS011;5894;42.768;23.404;2023-08-07T13:09:16;4.65;;;1.40;;
11675;SDS011;5894;42.768;23.404;2023-08-07T13:11:43;15.00;;;2.03;;
11675;SDS011;5894;42.768;23.404;2023-08-07T13:14:10;1.55;;;1.30;;
11675;SDS011;5894;42.768;23.404;2023-08-07T13:16:37;1.80;;;1.33;;
11675;SDS011;5894;42.768;23.404;2023-08-07T13:19:06;2.83;;;1.40;;
11675;SDS011;5894;42.768;23.404;2023-08-07T13:21:33;2.15;;;1.40;;
11675;SDS011;5894;42.768;23.404;2023-08-07T13:24:00;3.55;;;1.40;;
11675;SDS011;5894;42.768;23.404;2023-08-07T13:26:27;1.88;;;1.30;;
11675;SDS011;5894;42.768;23.404;2023-08-07T13:28:54;1.55;;;1.45;;
11675;SDS011;5894;42.768;23.404;2023-08-07T13:31:22;1.40;;;1.30;;
11675;SDS011;5894;42.768;23.404;2023-08-07T13:33:49;2.55;;;1.40;;
11675;SDS011;5894;42.768;23.404;2023-08-07T13:36:17;1.40;;;1.30;;
11675;SDS011;5894;42.768;23.404;2023-08-07T13:38:45;2.47;;;1.40;;
11675;SDS011;5894;42.768;23.404;2023-08-07T13:41:12;1.33;;;1.23;;
11675;SDS011;5894;42.768;23.404;2023-08-07T13:43:39;1.83;;;1.27;;
11675;SDS011;5894;42.768;23.404;2023-08-07T13:46:06;1.48;;;1.38;;
11675;SDS011;5894;42.768;23.404;2023-08-07T13:48:35;1.45;;;1.35;;
11675;SDS011;5894;42.768;23.404;2023-08-07T13:51:02;1.40;;;1.30;;
11675;SDS011;5894;42.768;23.404;2023-08-07T13:53:33;2.08;;;1.60;;
11675;SDS011;5894;42.768;23.404;2023-08-07T13:56:01;1.73;;;1.40;;
11675;SDS011;5894;42.768;23.404;2023-08-07T13:58:28;1.60;;;1.50;;
11675;SDS011;5894;42.768;23.404;2023-08-07T14:00:56;2.75;;;1.77;;
11675;SDS011;5894;42.768;23.404;2023-08-07T14:03:23;2.70;;;1.80;;
11675;SDS011;5894;42.768;23.404;2023-08-07T14:05:50;2.85;;;1.50;;
11675;SDS011;5894;42.768;23.404;2023-08-07T14:08:17;1.63;;;1.52;;
11675;SDS011;5894;42.768;23.404;2023-08-07T14:10:46;2.00;;;1.80;;
11675;SDS011;5894;42.768;23.404;2023-08-07T14:13:13;1.42;;;1.33;;
11675;SDS011;5894;42.768;23.404;2023-08-07T14:15:40;4.53;;;1.60;;
11675;SDS011;5894;42.768;23.404;2023-08-07T14:18:08;1.70;;;1.60;;
11675;SDS011;5894;42.768;23.404;2023-08-07T14:20:36;2.63;;;1.40;;
11675;SDS011;5894;42.768;23.404;2023-08-07T14:23:03;8.60;;;2.40;;
11675;SDS011;5894;42.768;23.404;2023-08-07T14:25:30;3.05;;;1.60;;
11675;SDS011;5894;42.768;23.404;2023-08-07T14:27:59;3.05;;;1.38;;
11675;SDS011;5894;42.768;23.404;2023-08-07T14:30:26;2.35;;;1.58;;
11675;SDS011;5894;42.768;23.404;2023-08-07T14:32:53;1.92;;;1.50;;
11675;SDS011;5894;42.768;23.404;2023-08-07T14:35:20;3.28;;;1.58;;
11675;SDS011;5894;42.768;23.404;2023-08-07T14:37:47;3.85;;;1.70;;
11675;SDS011;5894;42.768;23.404;2023-08-07T14:40:14;8.05;;;1.60;;
11675;SDS011;5894;42.768;23.404;2023-08-07T14:42:42;2.40;;;1.30;;
11675;SDS011;5894;42.768;23.404;2023-08-07T14:45:10;1.60;;;1.50;;
11675;SDS011;5894;42.768;23.404;2023-08-07T14:47:38;1.65;;;1.50;;
11675;SDS011;5894;42.768;23.404;2023-08-07T14:50:05;3.13;;;1.40;;
11675;SDS011;5894;42.768;23.404;2023-08-07T14:52:32;1.95;;;1.50;;